createdAt,value
2017-07-28T00:00:12.563Z,62.50
2017-07-28T00:02:40.238Z,62.35
2017-07-28T00:05:07.910Z,62.50
2017-07-28T00:07:35.953Z,62.59
2017-07-28T00:10:03.644Z,62.71
2017-07-28T00:12:31.412Z,63.01
2017-07-28T00:14:59.064Z,62.98
2017-07-28T00:17:26.702Z,62.75
2017-07-28T00:19:54.320Z,62.51
2017-07-28T00:22:21.983Z,62.51
2017-07-28T00:24:49.674Z,62.57
2017-07-28T00:27:17.307Z,62.30
2017-07-28T00:29:44.947Z,62.37
2017-07-28T00:32:12.762Z,62.48
2017-07-28T00:34:40.402Z,62.49
2017-07-28T00:37:08.086Z,62.55
2017-07-28T00:39:35.878Z,62.48
2017-07-28T00:42:03.523Z,62.22
2017-07-28T00:44:31.136Z,62.19
2017-07-28T00:46:58.838Z,62.60
2017-07-28T00:49:26.455Z,62.66
2017-07-28T00:51:54.083Z,62.94
2017-07-28T00:54:21.733Z,62.70
2017-07-28T00:56:49.391Z,63.01
2017-07-28T00:59:17.076Z,63.04
2017-07-28T01:01:44.824Z,62.88
2017-07-28T01:04:12.540Z,63.36
2017-07-28T01:06:40.166Z,63.90
2017-07-28T01:09:07.812Z,63.91
2017-07-28T01:11:35.432Z,63.82
2017-07-28T01:14:03.247Z,63.60
2017-07-28T01:16:30.945Z,63.59
2017-07-28T01:18:58.619Z,63.42
2017-07-28T01:21:26.228Z,63.49
2017-07-28T01:23:53.881Z,63.57
2017-07-28T01:26:21.562Z,63.27
2017-07-28T01:28:49.235Z,63.68
2017-07-28T01:31:16.868Z,63.38
2017-07-28T01:33:44.502Z,62.86
2017-07-28T01:36:12.109Z,63.03
2017-07-28T01:38:39.971Z,63.23
2017-07-28T01:41:07.599Z,63.42
2017-07-28T01:43:35.233Z,63.63
2017-07-28T01:46:02.842Z,63.66
2017-07-28T01:48:30.486Z,63.71
2017-07-28T01:50:58.109Z,63.85
2017-07-28T01:53:25.730Z,63.87
2017-07-28T01:55:53.390Z,64.00
2017-07-28T01:58:21.027Z,64.53
2017-07-28T02:00:48.697Z,64.88
2017-07-28T02:03:16.378Z,65.26
2017-07-28T02:05:44.048Z,65.42
2017-07-28T02:08:11.678Z,65.51
2017-07-28T02:10:39.320Z,65.46
2017-07-28T02:13:06.948Z,65.89
2017-07-28T02:15:34.588Z,66.07
2017-07-28T02:18:02.196Z,66.42
2017-07-28T02:20:29.843Z,66.55
2017-07-28T02:22:57.462Z,66.92
2017-07-28T02:25:25.103Z,67.45
2017-07-28T02:27:52.710Z,67.23
2017-07-28T02:30:20.348Z,67.05
2017-07-28T02:32:47.977Z,66.99
2017-07-28T02:35:15.623Z,67.12
2017-07-28T02:37:43.266Z,67.13
2017-07-28T02:40:10.995Z,67.31
2017-07-28T02:42:38.752Z,67.17
2017-07-28T02:45:06.391Z,67.54
2017-07-28T02:47:34.007Z,67.54
2017-07-28T02:50:01.667Z,67.35
2017-07-28T02:52:29.303Z,67.50
2017-07-28T02:54:56.964Z,67.70
2017-07-28T02:57:24.580Z,67.83
2017-07-28T02:59:52.216Z,68.15
2017-07-28T03:02:19.841Z,68.35
2017-07-28T03:04:47.492Z,68.41
2017-07-28T03:07:15.163Z,68.51
2017-07-28T03:09:42.803Z,68.44
2017-07-28T03:12:10.414Z,68.65
2017-07-28T03:14:38.065Z,68.67
2017-07-28T03:17:05.680Z,69.02
2017-07-28T03:19:33.439Z,68.99
2017-07-28T03:22:01.076Z,69.35
2017-07-28T03:24:28.731Z,69.12
2017-07-28T03:26:56.343Z,69.37
2017-07-28T03:29:23.980Z,69.43
2017-07-28T03:31:51.589Z,69.40
2017-07-28T03:34:19.241Z,69.94
2017-07-28T03:36:46.924Z,69.93
2017-07-28T03:39:14.572Z,69.88
2017-07-28T03:41:42.308Z,69.81
2017-07-28T03:44:09.967Z,69.67
2017-07-28T03:46:37.675Z,69.87
2017-07-28T03:49:05.337Z,70.12
2017-07-28T03:51:32.969Z,70.16
2017-07-28T03:54:00.583Z,70.77
2017-07-28T03:56:28.231Z,70.71
2017-07-28T03:58:55.851Z,70.59
2017-07-28T04:01:23.568Z,71.20
2017-07-28T04:03:51.179Z,71.11
2017-07-28T04:06:18.888Z,70.83
2017-07-28T04:08:46.490Z,70.84
2017-07-28T04:11:14.143Z,70.96
2017-07-28T04:13:41.772Z,71.08
2017-07-28T04:16:09.692Z,71.02
2017-07-28T04:18:37.524Z,71.26
2017-07-28T04:21:05.184Z,71.60
2017-07-28T04:23:32.784Z,71.52
2017-07-28T04:26:00.394Z,71.49
2017-07-28T04:28:28.036Z,71.71
2017-07-28T04:30:55.683Z,71.40
2017-07-28T04:33:23.439Z,71.56
2017-07-28T04:35:51.104Z,71.89
2017-07-28T04:38:18.843Z,72.06
2017-07-28T04:40:46.447Z,72.20
2017-07-28T04:43:14.091Z,72.44
2017-07-28T04:45:41.729Z,72.59
2017-07-28T04:48:09.370Z,72.68
2017-07-28T04:50:36.987Z,73.19
2017-07-28T04:53:04.647Z,73.28
2017-07-28T04:55:32.247Z,73.23
2017-07-28T04:57:59.911Z,73.36
2017-07-28T05:00:27.512Z,73.28
2017-07-28T05:02:55.165Z,73.19
2017-07-28T05:05:22.792Z,73.28
2017-07-28T05:07:50.436Z,73.46
2017-07-28T05:10:18.080Z,73.80
2017-07-28T05:12:45.744Z,73.41
2017-07-28T05:15:13.374Z,73.23
2017-07-28T05:17:41.040Z,73.50
2017-07-28T05:20:08.697Z,73.78
2017-07-28T05:22:36.349Z,73.76
2017-07-28T05:25:03.962Z,73.69
2017-07-28T05:27:31.623Z,73.62
2017-07-28T05:29:59.244Z,73.71
2017-07-28T05:32:26.892Z,73.42
2017-07-28T05:34:54.550Z,73.62
2017-07-28T05:37:22.208Z,73.70
2017-07-28T05:39:49.827Z,73.65
2017-07-28T05:42:17.443Z,73.10
2017-07-28T05:44:45.108Z,73.58
2017-07-28T05:47:12.750Z,73.60
2017-07-28T05:49:40.456Z,73.74
2017-07-28T05:52:08.132Z,73.02
2017-07-28T05:54:35.772Z,73.09
2017-07-28T05:57:03.403Z,72.88
2017-07-28T05:59:31.044Z,72.69
2017-07-28T06:01:58.663Z,72.25
2017-07-28T06:04:26.344Z,72.58
2017-07-28T06:06:53.953Z,72.30
2017-07-28T06:09:21.596Z,72.73
2017-07-28T06:11:49.234Z,72.07
2017-07-28T06:14:16.939Z,72.15
2017-07-28T06:16:44.591Z,72.26
2017-07-28T06:19:12.215Z,72.40
2017-07-28T06:21:39.852Z,71.83
2017-07-28T06:24:07.451Z,71.78
2017-07-28T06:26:35.390Z,71.93
2017-07-28T06:29:03.043Z,71.12
2017-07-28T06:31:30.654Z,71.14
2017-07-28T06:33:58.292Z,70.82
2017-07-28T06:36:25.906Z,70.88
2017-07-28T06:38:53.549Z,69.95
2017-07-28T06:41:21.201Z,69.92
2017-07-28T06:43:48.857Z,70.09
2017-07-28T06:46:16.483Z,70.30
2017-07-28T06:48:44.175Z,70.67
2017-07-28T06:51:11.792Z,70.59
2017-07-28T06:53:39.595Z,70.59
2017-07-28T06:56:07.232Z,71.00
2017-07-28T06:58:34.851Z,71.01
2017-07-28T07:01:02.536Z,70.28
2017-07-28T07:03:30.143Z,70.77
2017-07-28T07:05:57.794Z,70.59
2017-07-28T07:08:25.407Z,70.68
2017-07-28T07:10:53.086Z,70.52
2017-07-28T07:13:20.724Z,70.36
2017-07-28T07:15:48.405Z,70.41
2017-07-28T07:18:16.044Z,70.39
2017-07-28T07:20:43.724Z,70.44
2017-07-28T07:23:11.394Z,69.64
2017-07-28T07:25:39.041Z,69.17
2017-07-28T07:28:06.656Z,68.72
2017-07-28T07:30:34.475Z,67.53
2017-07-28T07:33:02.067Z,68.06
2017-07-28T07:35:29.705Z,67.33
2017-07-28T07:37:57.310Z,66.79
2017-07-28T07:40:24.994Z,67.46
2017-07-28T07:42:52.601Z,66.99
2017-07-28T07:45:20.265Z,66.72
2017-07-28T07:47:47.873Z,66.29
2017-07-28T07:50:15.520Z,65.99
2017-07-28T07:52:43.130Z,65.49
2017-07-28T07:55:10.779Z,65.71
2017-07-28T07:57:38.421Z,65.91
2017-07-28T08:00:06.011Z,65.06
2017-07-28T08:02:33.639Z,65.52
2017-07-28T08:05:01.258Z,63.67
2017-07-28T08:07:28.884Z,63.86
2017-07-28T08:09:56.519Z,63.80
2017-07-28T08:12:24.274Z,62.81
2017-07-28T08:14:51.913Z,63.04
2017-07-28T08:17:19.524Z,62.20
2017-07-28T08:19:47.185Z,62.07
2017-07-28T08:22:14.836Z,62.14
2017-07-28T08:24:42.482Z,61.74
2017-07-28T08:27:10.141Z,61.26
2017-07-28T08:29:37.774Z,61.28
2017-07-28T08:32:05.402Z,61.56
2017-07-28T08:34:33.031Z,60.88
2017-07-28T08:37:00.693Z,60.96
2017-07-28T08:39:28.310Z,60.78
2017-07-28T08:41:55.954Z,60.70
2017-07-28T08:44:23.558Z,60.74
2017-07-28T08:46:51.186Z,59.75
2017-07-28T08:49:18.814Z,60.45
2017-07-28T08:51:46.478Z,59.98
2017-07-28T08:54:14.206Z,60.46
2017-07-28T08:56:41.883Z,60.83
2017-07-28T08:59:09.523Z,60.93
2017-07-28T09:01:37.217Z,60.89
2017-07-28T09:04:04.985Z,61.11
2017-07-28T09:06:32.623Z,60.71
2017-07-28T09:09:00.278Z,60.84
2017-07-28T09:11:27.975Z,60.04
2017-07-28T09:13:55.625Z,60.82
2017-07-28T09:16:23.351Z,61.10
2017-07-28T09:18:51.056Z,61.05
2017-07-28T09:21:18.737Z,60.50
2017-07-28T09:23:46.416Z,60.32
2017-07-28T09:26:14.070Z,60.53
2017-07-28T09:28:41.731Z,60.63
2017-07-28T09:31:09.443Z,60.75
2017-07-28T09:33:37.125Z,60.69
2017-07-28T09:36:05.048Z,59.91
2017-07-28T09:38:32.716Z,60.44
2017-07-28T09:41:00.475Z,60.28
2017-07-28T09:43:28.227Z,59.23
2017-07-28T09:45:55.952Z,59.49
2017-07-28T09:48:24.051Z,59.61
2017-07-28T09:50:51.689Z,60.26
2017-07-28T09:53:19.333Z,59.47
2017-07-28T09:55:47.060Z,58.96
2017-07-28T09:58:14.732Z,59.40
2017-07-28T10:00:42.400Z,58.77
2017-07-28T10:03:10.062Z,58.88
2017-07-28T10:05:37.725Z,58.94
2017-07-28T10:08:05.340Z,57.67
2017-07-28T10:10:33.015Z,57.19
2017-07-28T10:13:00.645Z,57.02
2017-07-28T10:15:28.315Z,56.44
2017-07-28T10:17:55.960Z,55.82
2017-07-28T10:20:23.604Z,56.25
2017-07-28T10:22:52.722Z,55.07
2017-07-28T10:25:20.451Z,53.64
2017-07-28T10:27:48.764Z,53.42
2017-07-28T10:30:17.524Z,53.81
2017-07-28T10:32:45.316Z,54.75
2017-07-28T10:35:13.006Z,54.48
2017-07-28T10:37:40.644Z,54.56
2017-07-28T10:40:08.298Z,55.50
2017-07-28T10:42:35.923Z,55.16
2017-07-28T10:45:03.624Z,52.41
2017-07-28T10:47:31.254Z,52.84
2017-07-28T10:49:58.892Z,52.75
2017-07-28T10:52:26.585Z,52.84
2017-07-28T10:54:54.259Z,52.44
2017-07-28T10:57:21.882Z,52.51
2017-07-28T10:59:49.532Z,51.75
2017-07-28T11:02:17.172Z,51.62
2017-07-28T11:04:44.836Z,50.83
2017-07-28T11:07:12.457Z,48.89
2017-07-28T11:09:40.118Z,48.74
2017-07-28T11:12:08.486Z,49.35
2017-07-28T11:14:36.195Z,49.34
2017-07-28T11:17:03.852Z,49.80
2017-07-28T11:19:31.504Z,49.48
2017-07-28T11:21:59.123Z,50.62
2017-07-28T11:24:26.812Z,51.11
2017-07-28T11:26:54.495Z,51.10
2017-07-28T11:29:22.146Z,51.22
2017-07-28T11:31:49.768Z,52.15
2017-07-28T11:34:17.413Z,50.10
2017-07-28T11:36:45.111Z,48.68
2017-07-28T11:39:12.786Z,49.29
2017-07-28T11:41:40.410Z,49.04
2017-07-28T11:44:08.991Z,49.55
2017-07-28T11:46:36.618Z,50.25
2017-07-28T11:49:04.300Z,49.70
2017-07-28T11:51:31.944Z,49.53
2017-07-28T11:53:59.574Z,49.31
2017-07-28T11:56:27.270Z,49.11
2017-07-28T11:58:54.896Z,49.69
2017-07-28T12:01:22.509Z,49.94
2017-07-28T12:03:50.164Z,50.27
2017-07-28T12:06:17.836Z,50.24
2017-07-28T12:08:45.483Z,49.36
2017-07-28T12:11:13.148Z,49.98
2017-07-28T12:13:40.752Z,48.83
2017-07-28T12:16:08.425Z,48.25
2017-07-28T12:18:36.050Z,48.64
2017-07-28T12:21:03.783Z,48.59
2017-07-28T12:23:31.378Z,49.56
2017-07-28T12:25:59.306Z,48.80
2017-07-28T12:28:27.348Z,48.86
2017-07-28T12:30:55.043Z,49.47
2017-07-28T12:33:22.647Z,49.74
2017-07-28T12:35:50.367Z,50.19
2017-07-28T12:38:17.995Z,49.30
2017-07-28T12:40:45.653Z,49.26
2017-07-28T12:43:13.284Z,50.14
2017-07-28T12:45:40.984Z,49.50
2017-07-28T12:48:08.616Z,49.60
2017-07-28T12:50:36.335Z,50.03
2017-07-28T12:53:03.956Z,50.71
2017-07-28T12:55:31.681Z,51.33
2017-07-28T12:57:59.295Z,51.23
2017-07-28T13:00:27.010Z,51.71
2017-07-28T13:02:54.626Z,51.04
2017-07-28T13:05:22.292Z,51.33
2017-07-28T13:07:50.209Z,51.49
2017-07-28T13:10:18.023Z,50.87
2017-07-28T13:12:45.776Z,50.93
2017-07-28T13:15:13.527Z,50.62
2017-07-28T13:17:41.213Z,50.14
2017-07-28T13:20:09.006Z,50.25
2017-07-28T13:22:36.739Z,49.73
2017-07-28T13:25:04.402Z,49.01
2017-07-28T13:27:32.158Z,49.51
2017-07-28T13:30:00.111Z,48.99
2017-07-28T13:32:27.776Z,49.13
2017-07-28T13:34:55.526Z,49.82
2017-07-28T13:37:23.131Z,48.85
2017-07-28T13:39:50.816Z,49.00
2017-07-28T13:42:18.507Z,49.60
2017-07-28T13:44:46.166Z,49.73
2017-07-28T13:47:13.827Z,48.89
2017-07-28T13:49:41.510Z,49.22
2017-07-28T13:52:09.125Z,48.72
2017-07-28T13:54:36.868Z,47.78
2017-07-28T13:57:04.517Z,47.38
2017-07-28T13:59:32.241Z,47.90
2017-07-28T14:01:59.879Z,46.94
2017-07-28T14:04:27.508Z,47.24
2017-07-28T14:06:55.165Z,46.42
2017-07-28T14:09:22.816Z,47.70
2017-07-28T14:11:50.424Z,48.36
2017-07-28T14:14:18.135Z,47.26
2017-07-28T14:16:45.778Z,47.62
2017-07-28T14:19:13.400Z,47.63
2017-07-28T14:21:41.255Z,47.24
2017-07-28T14:24:08.923Z,46.58
2017-07-28T14:26:36.539Z,46.32
2017-07-28T14:29:04.168Z,46.14
2017-07-28T14:31:31.831Z,46.16
2017-07-28T14:33:59.479Z,46.11
2017-07-28T14:36:27.332Z,47.16
2017-07-28T14:38:55.126Z,47.93
2017-07-28T14:41:22.788Z,47.83
2017-07-28T14:43:50.389Z,47.75
2017-07-28T14:46:18.420Z,47.91
2017-07-28T14:48:46.129Z,48.25
2017-07-28T14:51:13.771Z,48.74
2017-07-28T14:53:41.501Z,48.52
2017-07-28T14:56:09.160Z,48.76
2017-07-28T14:58:36.802Z,48.13
2017-07-28T15:01:04.418Z,48.25
2017-07-28T15:03:32.096Z,49.15
2017-07-28T15:05:59.714Z,48.45
2017-07-28T15:08:27.370Z,48.59
2017-07-28T15:10:55.170Z,48.66
2017-07-28T15:13:22.830Z,48.70
2017-07-28T15:15:50.568Z,48.90
2017-07-28T15:18:18.286Z,47.19
2017-07-28T15:20:45.955Z,46.29
2017-07-28T15:23:13.628Z,45.28
2017-07-28T15:25:41.275Z,45.33
2017-07-28T15:28:08.886Z,45.49
2017-07-28T15:30:36.578Z,44.68
2017-07-28T15:33:04.195Z,45.74
2017-07-28T15:35:31.843Z,46.90
2017-07-28T15:37:59.454Z,47.69
2017-07-28T15:40:27.074Z,48.20
2017-07-28T15:42:54.705Z,48.91
2017-07-28T15:45:22.406Z,48.02
2017-07-28T15:47:50.193Z,48.17
2017-07-28T15:50:17.860Z,48.54
2017-07-28T15:52:45.479Z,48.56
2017-07-28T15:55:13.136Z,48.45
2017-07-28T15:57:40.749Z,49.56
2017-07-28T16:00:08.407Z,50.03
2017-07-28T16:02:36.034Z,49.75
2017-07-28T16:05:03.721Z,50.08
2017-07-28T16:07:31.363Z,50.34
2017-07-28T16:09:59.013Z,49.94
2017-07-28T16:12:27.148Z,49.65
2017-07-28T16:14:54.815Z,49.06
2017-07-28T16:17:22.446Z,49.20
2017-07-28T16:19:50.124Z,49.85
2017-07-28T16:22:17.742Z,49.23
2017-07-28T16:24:47.103Z,48.98
2017-07-28T16:27:14.734Z,49.54
2017-07-28T16:29:42.414Z,49.75
2017-07-28T16:32:10.003Z,49.63
2017-07-28T16:34:37.634Z,49.85
2017-07-28T16:37:05.228Z,49.70
2017-07-28T16:39:32.947Z,49.29
2017-07-28T16:42:00.539Z,49.41
2017-07-28T16:44:28.182Z,49.41
2017-07-28T16:46:55.821Z,49.43
2017-07-28T16:49:23.458Z,49.56
2017-07-28T16:51:51.073Z,49.44
2017-07-28T16:54:18.670Z,49.49
2017-07-28T16:56:46.349Z,48.92
2017-07-28T16:59:13.942Z,49.09
2017-07-28T17:01:41.599Z,48.46
2017-07-28T17:04:09.219Z,48.09
2017-07-28T17:06:36.869Z,48.36
2017-07-28T17:09:04.463Z,48.57
2017-07-28T17:11:32.086Z,48.34
2017-07-28T17:13:59.703Z,48.76
2017-07-28T17:16:27.339Z,48.04
2017-07-28T17:18:54.957Z,47.96
2017-07-28T17:21:22.651Z,48.30
2017-07-28T17:23:50.251Z,48.29
2017-07-28T17:26:17.855Z,49.43
2017-07-28T17:28:45.494Z,49.56
2017-07-28T17:31:13.132Z,50.13
2017-07-28T17:33:40.803Z,50.52
2017-07-28T17:36:08.457Z,50.36
2017-07-28T17:38:36.082Z,49.98
2017-07-28T17:41:03.753Z,50.49
2017-07-28T17:43:31.394Z,50.94
2017-07-28T17:45:58.991Z,51.09
2017-07-28T17:48:26.629Z,51.27
2017-07-28T17:50:54.231Z,51.22
2017-07-28T17:53:21.860Z,51.61
2017-07-28T17:55:49.461Z,52.53
2017-07-28T17:58:17.102Z,52.22
2017-07-28T18:00:44.691Z,52.09
2017-07-28T18:03:12.362Z,52.24
2017-07-28T18:05:40.091Z,51.76
2017-07-28T18:08:07.781Z,51.59
2017-07-28T18:10:35.406Z,51.67
2017-07-28T18:13:03.084Z,51.69
2017-07-28T18:15:30.714Z,51.55
2017-07-28T18:17:58.350Z,51.31
2017-07-28T18:20:26.000Z,51.35
2017-07-28T18:22:53.646Z,51.05
2017-07-28T18:25:21.296Z,51.29
2017-07-28T18:27:48.934Z,51.57
2017-07-28T18:30:16.575Z,52.54
2017-07-28T18:32:44.202Z,53.34
2017-07-28T18:35:11.839Z,54.73
2017-07-28T18:37:39.483Z,56.18
2017-07-28T18:40:07.161Z,56.92
2017-07-28T18:42:34.758Z,57.13
2017-07-28T18:45:02.382Z,57.44
2017-07-28T18:47:29.996Z,57.80
2017-07-28T18:49:57.646Z,59.55
2017-07-28T18:52:25.309Z,59.02
2017-07-28T18:54:52.944Z,58.69
2017-07-28T18:57:20.569Z,59.22
2017-07-28T18:59:48.216Z,60.08
2017-07-28T19:02:15.808Z,60.47
2017-07-28T19:04:43.496Z,60.22
2017-07-28T19:07:11.120Z,60.15
2017-07-28T19:09:38.726Z,60.65
2017-07-28T19:12:06.387Z,62.10
2017-07-28T19:14:34.040Z,65.94
2017-07-28T19:17:01.635Z,64.92
2017-07-28T19:19:29.275Z,64.52
2017-07-28T19:21:56.880Z,67.08
2017-07-28T19:24:24.542Z,66.33
2017-07-28T19:26:52.189Z,65.79
2017-07-28T19:29:19.782Z,65.63
2017-07-28T19:31:47.431Z,65.15
2017-07-28T19:34:15.032Z,66.56
2017-07-28T19:36:42.709Z,66.75
2017-07-28T19:39:10.360Z,65.77
2017-07-28T19:41:37.994Z,66.17
2017-07-28T19:44:05.620Z,68.99
2017-07-28T19:46:33.255Z,68.96
2017-07-28T19:49:00.864Z,71.45
2017-07-28T19:51:28.491Z,72.82
2017-07-28T19:53:56.139Z,74.72
2017-07-28T19:56:23.775Z,74.43
2017-07-28T19:58:51.366Z,72.52
2017-07-28T20:01:19.007Z,73.65
2017-07-28T20:03:46.614Z,72.08
2017-07-28T20:06:14.218Z,71.72
2017-07-28T20:08:41.901Z,72.61
2017-07-28T20:11:09.519Z,72.64
2017-07-28T20:13:37.207Z,72.36
2017-07-28T20:16:04.818Z,71.84
2017-07-28T20:18:32.455Z,72.69
2017-07-28T20:21:00.047Z,72.50
2017-07-28T20:23:27.810Z,71.62
2017-07-28T20:25:55.427Z,71.73
2017-07-28T20:28:23.025Z,72.02
2017-07-28T20:30:50.686Z,72.63
2017-07-28T20:33:18.281Z,72.48
2017-07-28T20:35:45.926Z,73.55
2017-07-28T20:38:13.521Z,73.53
2017-07-28T20:40:41.142Z,73.09
2017-07-28T20:43:08.753Z,73.26
2017-07-28T20:45:36.358Z,74.13
2017-07-28T20:48:03.978Z,74.38
2017-07-28T20:50:31.626Z,76.01
2017-07-28T20:52:59.254Z,77.21
2017-07-28T20:55:26.857Z,77.65
2017-07-28T20:57:54.488Z,77.99
2017-07-28T21:00:22.090Z,77.97
2017-07-28T21:02:49.746Z,77.85
2017-07-28T21:05:17.334Z,78.27
2017-07-28T21:07:44.977Z,79.09
2017-07-28T21:10:12.595Z,79.24
2017-07-28T21:12:40.226Z,79.85
2017-07-28T21:15:07.828Z,79.32
2017-07-28T21:17:35.452Z,79.11
2017-07-28T21:20:03.102Z,78.96
2017-07-28T21:22:30.734Z,79.50
2017-07-28T21:24:58.391Z,79.81
2017-07-28T21:27:26.010Z,80.46
2017-07-28T21:29:53.650Z,80.73
2017-07-28T21:32:21.269Z,81.35
2017-07-28T21:34:48.859Z,81.89
2017-07-28T21:37:16.542Z,81.69
2017-07-28T21:39:44.125Z,82.15
2017-07-28T21:42:11.770Z,82.39
2017-07-28T21:44:39.362Z,83.40
2017-07-28T21:47:06.994Z,83.12
2017-07-28T21:49:34.615Z,82.88
2017-07-28T21:52:02.763Z,82.94
2017-07-28T21:54:30.381Z,83.07
2017-07-28T21:56:57.967Z,82.75
2017-07-28T21:59:25.606Z,82.70
2017-07-28T22:01:53.238Z,82.65
2017-07-28T22:04:20.840Z,82.60
2017-07-28T22:06:48.491Z,83.05
2017-07-28T22:09:16.090Z,83.13
2017-07-28T22:11:43.706Z,83.88
2017-07-28T22:14:11.330Z,84.02
2017-07-28T22:16:38.946Z,83.39
2017-07-28T22:19:06.574Z,82.75
2017-07-28T22:21:34.195Z,81.87
2017-07-28T22:24:01.823Z,82.21
2017-07-28T22:26:29.413Z,82.31
2017-07-28T22:28:57.046Z,82.88
2017-07-28T22:31:24.638Z,82.86
2017-07-28T22:33:52.311Z,81.99
2017-07-28T22:36:19.918Z,82.18
2017-07-28T22:38:47.533Z,81.64
2017-07-28T22:41:15.166Z,82.26
2017-07-28T22:43:42.771Z,82.75
2017-07-28T22:46:10.377Z,82.62
2017-07-28T22:48:38.051Z,82.82
2017-07-28T22:51:05.625Z,82.78
2017-07-28T22:53:33.234Z,82.60
2017-07-28T22:56:00.878Z,82.52
2017-07-28T22:58:28.475Z,81.93
2017-07-28T23:00:56.146Z,81.08
2017-07-28T23:03:23.756Z,81.23
2017-07-28T23:05:51.397Z,81.54
2017-07-28T23:08:18.990Z,81.76
2017-07-28T23:10:46.623Z,82.10
2017-07-28T23:13:14.225Z,82.65
2017-07-28T23:15:41.831Z,82.88
2017-07-28T23:18:09.459Z,83.15
2017-07-28T23:20:37.059Z,83.22
2017-07-28T23:23:04.682Z,83.10
2017-07-28T23:25:32.326Z,83.39
2017-07-28T23:27:59.967Z,82.82
2017-07-28T23:30:27.557Z,83.01
2017-07-28T23:32:55.186Z,82.94
2017-07-28T23:35:22.786Z,83.49
2017-07-28T23:37:50.426Z,82.59
2017-07-28T23:40:18.068Z,82.87
2017-07-28T23:42:45.662Z,82.90
2017-07-28T23:45:13.295Z,82.99
2017-07-28T23:47:40.950Z,83.34
2017-07-28T23:50:08.545Z,83.20
2017-07-28T23:52:36.167Z,83.52
2017-07-28T23:55:03.763Z,83.46
2017-07-28T23:57:31.427Z,83.06
2017-07-28T23:59:59.026Z,83.50
